sensor_id;sensor_type;location;lat;lon;timestamp;P1;durP1;ratioP1;P2;durP2;ratioP2
12425;SDS011;6277;49.824;9.562;2024-02-26T00:01:09;1.92;;;1.23;;
12425;SDS011;6277;49.824;9.562;2024-02-26T00:03:35;1.73;;;1.30;;
12425;SDS011;6277;49.824;9.562;2024-02-26T00:06:01;1.15;;;1.00;;
12425;SDS011;6277;49.824;9.562;2024-02-26T00:08:27;1.65;;;1.20;;
12425;SDS011;6277;49.824;9.562;2024-02-26T00:10:53;1.88;;;1.25;;
12425;SDS011;6277;49.824;9.562;2024-02-26T00:13:18;1.77;;;1.20;;
12425;SDS011;6277;49.824;9.562;2024-02-26T00:15:45;2.20;;;1.23;;
12425;SDS011;6277;49.824;9.562;2024-02-26T00:18:11;1.52;;;1.10;;
12425;SDS011;6277;49.824;9.562;2024-02-26T00:20:36;1.55;;;1.00;;
12425;SDS011;6277;49.824;9.562;2024-02-26T00:23:02;1.70;;;1.20;;
12425;SDS011;6277;49.824;9.562;2024-02-26T00:25:27;1.50;;;1.17;;
12425;SDS011;6277;49.824;9.562;2024-02-26T00:27:53;1.60;;;1.20;;
12425;SDS011;6277;49.824;9.562;2024-02-26T00:30:18;1.60;;;1.15;;
12425;SDS011;6277;49.824;9.562;2024-02-26T00:32:44;1.70;;;1.00;;
12425;SDS011;6277;49.824;9.562;2024-02-26T00:35:09;1.40;;;1.10;;
12425;SDS011;6277;49.824;9.562;2024-02-26T00:37:35;2.00;;;1.10;;
12425;SDS011;6277;49.824;9.562;2024-02-26T00:40:00;2.00;;;1.40;;
12425;SDS011;6277;49.824;9.562;2024-02-26T00:42:26;2.17;;;1.30;;
12425;SDS011;6277;49.824;9.562;2024-02-26T00:44:52;1.83;;;1.02;;
12425;SDS011;6277;49.824;9.562;2024-02-26T00:47:17;2.08;;;1.27;;
12425;SDS011;6277;49.824;9.562;2024-02-26T00:49:43;1.65;;;1.17;;
12425;SDS011;6277;49.824;9.562;2024-02-26T00:52:08;1.83;;;1.30;;
12425;SDS011;6277;49.824;9.562;2024-02-26T00:54:34;2.00;;;1.30;;
12425;SDS011;6277;49.824;9.562;2024-02-26T00:56:59;2.53;;;1.50;;
12425;SDS011;6277;49.824;9.562;2024-02-26T00:59:25;2.00;;;1.38;;
12425;SDS011;6277;49.824;9.562;2024-02-26T01:01:50;1.52;;;1.15;;
12425;SDS011;6277;49.824;9.562;2024-02-26T01:04:16;1.50;;;1.23;;
12425;SDS011;6277;49.824;9.562;2024-02-26T01:06:41;2.60;;;1.40;;
12425;SDS011;6277;49.824;9.562;2024-02-26T01:09:07;2.17;;;1.38;;
12425;SDS011;6277;49.824;9.562;2024-02-26T01:11:33;1.88;;;1.50;;
12425;SDS011;6277;49.824;9.562;2024-02-26T01:13:58;1.90;;;1.35;;
12425;SDS011;6277;49.824;9.562;2024-02-26T01:16:24;1.73;;;1.25;;
12425;SDS011;6277;49.824;9.562;2024-02-26T01:18:49;2.17;;;1.38;;
12425;SDS011;6277;49.824;9.562;2024-02-26T01:21:15;3.45;;;1.60;;
12425;SDS011;6277;49.824;9.562;2024-02-26T01:23:41;1.70;;;1.42;;
12425;SDS011;6277;49.824;9.562;2024-02-26T01:26:07;2.45;;;1.55;;
12425;SDS011;6277;49.824;9.562;2024-02-26T01:28:33;2.38;;;1.40;;
12425;SDS011;6277;49.824;9.562;2024-02-26T01:30:58;2.35;;;1.55;;
12425;SDS011;6277;49.824;9.562;2024-02-26T01:33:25;2.85;;;1.60;;
12425;SDS011;6277;49.824;9.562;2024-02-26T01:35:51;2.33;;;1.48;;
12425;SDS011;6277;49.824;9.562;2024-02-26T01:38:18;1.83;;;1.50;;
12425;SDS011;6277;49.824;9.562;2024-02-26T01:40:43;2.15;;;1.60;;
12425;SDS011;6277;49.824;9.562;2024-02-26T01:43:09;2.03;;;1.20;;
12425;SDS011;6277;49.824;9.562;2024-02-26T01:45:34;2.72;;;1.67;;
12425;SDS011;6277;49.824;9.562;2024-02-26T01:48:00;2.13;;;1.50;;
12425;SDS011;6277;49.824;9.562;2024-02-26T01:50:25;2.05;;;1.50;;
12425;SDS011;6277;49.824;9.562;2024-02-26T01:52:52;1.85;;;1.50;;
12425;SDS011;6277;49.824;9.562;2024-02-26T01:55:19;2.40;;;1.60;;
12425;SDS011;6277;49.824;9.562;2024-02-26T01:57:45;2.33;;;1.40;;
12425;SDS011;6277;49.824;9.562;2024-02-26T02:00:12;2.20;;;1.60;;
12425;SDS011;6277;49.824;9.562;2024-02-26T02:02:39;2.05;;;1.52;;
12425;SDS011;6277;49.824;9.562;2024-02-26T02:05:07;2.00;;;1.50;;
12425;SDS011;6277;49.824;9.562;2024-02-26T02:07:34;2.95;;;1.70;;
12425;SDS011;6277;49.824;9.562;2024-02-26T02:10:00;2.03;;;1.60;;
12425;SDS011;6277;49.824;9.562;2024-02-26T02:12:26;2.13;;;1.70;;
12425;SDS011;6277;49.824;9.562;2024-02-26T02:14:52;2.20;;;1.50;;
12425;SDS011;6277;49.824;9.562;2024-02-26T02:17:18;2.10;;;1.52;;
12425;SDS011;6277;49.824;9.562;2024-02-26T02:19:44;1.90;;;1.38;;
12425;SDS011;6277;49.824;9.562;2024-02-26T02:22:10;2.42;;;1.70;;
12425;SDS011;6277;49.824;9.562;2024-02-26T02:24:35;2.70;;;1.55;;
12425;SDS011;6277;49.824;9.562;2024-02-26T02:27:01;2.05;;;1.40;;
12425;SDS011;6277;49.824;9.562;2024-02-26T02:29:28;2.60;;;1.75;;
12425;SDS011;6277;49.824;9.562;2024-02-26T02:31:53;2.30;;;1.50;;
12425;SDS011;6277;49.824;9.562;2024-02-26T02:34:20;2.38;;;1.48;;
12425;SDS011;6277;49.824;9.562;2024-02-26T02:36:51;2.30;;;1.48;;
12425;SDS011;6277;49.824;9.562;2024-02-26T02:39:17;2.17;;;1.60;;
12425;SDS011;6277;49.824;9.562;2024-02-26T02:41:43;2.40;;;1.50;;
12425;SDS011;6277;49.824;9.562;2024-02-26T02:44:08;2.13;;;1.67;;
12425;SDS011;6277;49.824;9.562;2024-02-26T02:46:34;1.90;;;1.33;;
12425;SDS011;6277;49.824;9.562;2024-02-26T02:49:00;1.58;;;1.30;;
12425;SDS011;6277;49.824;9.562;2024-02-26T02:51:26;1.75;;;1.20;;
12425;SDS011;6277;49.824;9.562;2024-02-26T02:53:52;2.10;;;1.50;;
12425;SDS011;6277;49.824;9.562;2024-02-26T02:56:17;2.72;;;1.40;;
12425;SDS011;6277;49.824;9.562;2024-02-26T02:58:43;2.20;;;1.40;;
12425;SDS011;6277;49.824;9.562;2024-02-26T03:01:09;1.83;;;1.20;;
12425;SDS011;6277;49.824;9.562;2024-02-26T03:03:34;3.00;;;1.38;;
12425;SDS011;6277;49.824;9.562;2024-02-26T03:06:01;1.35;;;1.15;;
12425;SDS011;6277;49.824;9.562;2024-02-26T03:08:27;2.38;;;1.13;;
12425;SDS011;6277;49.824;9.562;2024-02-26T03:10:53;1.48;;;1.20;;
12425;SDS011;6277;49.824;9.562;2024-02-26T03:13:19;1.60;;;1.27;;
12425;SDS011;6277;49.824;9.562;2024-02-26T03:15:44;2.30;;;1.30;;
12425;SDS011;6277;49.824;9.562;2024-02-26T03:18:10;2.00;;;1.40;;
12425;SDS011;6277;49.824;9.562;2024-02-26T03:20:35;2.88;;;1.50;;
12425;SDS011;6277;49.824;9.562;2024-02-26T03:23:02;1.50;;;1.00;;
12425;SDS011;6277;49.824;9.562;2024-02-26T03:25:28;1.95;;;1.05;;
12425;SDS011;6277;49.824;9.562;2024-02-26T03:27:53;1.83;;;1.20;;
12425;SDS011;6277;49.824;9.562;2024-02-26T03:30:18;1.95;;;1.02;;
12425;SDS011;6277;49.824;9.562;2024-02-26T03:32:44;1.23;;;1.00;;
12425;SDS011;6277;49.824;9.562;2024-02-26T03:35:10;2.35;;;1.40;;
12425;SDS011;6277;49.824;9.562;2024-02-26T03:37:35;1.30;;;1.00;;
12425;SDS011;6277;49.824;9.562;2024-02-26T03:40:01;1.13;;;1.00;;
12425;SDS011;6277;49.824;9.562;2024-02-26T03:42:28;1.73;;;1.02;;
12425;SDS011;6277;49.824;9.562;2024-02-26T03:44:53;1.30;;;0.93;;
12425;SDS011;6277;49.824;9.562;2024-02-26T03:47:19;2.22;;;1.10;;
12425;SDS011;6277;49.824;9.562;2024-02-26T03:49:44;1.77;;;1.10;;
12425;SDS011;6277;49.824;9.562;2024-02-26T03:52:10;2.58;;;1.67;;
12425;SDS011;6277;49.824;9.562;2024-02-26T03:54:35;2.20;;;1.35;;
12425;SDS011;6277;49.824;9.562;2024-02-26T03:57:01;1.60;;;1.20;;
12425;SDS011;6277;49.824;9.562;2024-02-26T03:59:26;2.33;;;1.33;;
12425;SDS011;6277;49.824;9.562;2024-02-26T04:01:52;1.48;;;1.00;;
12425;SDS011;6277;49.824;9.562;2024-02-26T04:04:17;1.05;;;0.88;;
12425;SDS011;6277;49.824;9.562;2024-02-26T04:06:46;1.55;;;1.08;;
12425;SDS011;6277;49.824;9.562;2024-02-26T04:09:13;1.75;;;1.00;;
12425;SDS011;6277;49.824;9.562;2024-02-26T04:11:39;1.17;;;1.00;;
12425;SDS011;6277;49.824;9.562;2024-02-26T04:14:05;1.42;;;0.98;;
12425;SDS011;6277;49.824;9.562;2024-02-26T04:16:33;1.30;;;1.00;;
12425;SDS011;6277;49.824;9.562;2024-02-26T04:18:59;1.60;;;0.88;;
12425;SDS011;6277;49.824;9.562;2024-02-26T04:21:25;2.30;;;1.30;;
12425;SDS011;6277;49.824;9.562;2024-02-26T04:23:50;4.10;;;2.40;;
12425;SDS011;6277;49.824;9.562;2024-02-26T04:26:16;2.70;;;1.90;;
12425;SDS011;6277;49.824;9.562;2024-02-26T04:28:41;2.38;;;1.50;;
12425;SDS011;6277;49.824;9.562;2024-02-26T04:31:07;2.30;;;1.33;;
12425;SDS011;6277;49.824;9.562;2024-02-26T04:33:33;2.08;;;1.45;;
12425;SDS011;6277;49.824;9.562;2024-02-26T04:35:59;1.58;;;1.20;;
12425;SDS011;6277;49.824;9.562;2024-02-26T04:38:26;1.75;;;1.40;;
12425;SDS011;6277;49.824;9.562;2024-02-26T04:40:52;2.05;;;1.33;;
12425;SDS011;6277;49.824;9.562;2024-02-26T04:43:17;1.75;;;1.38;;
12425;SDS011;6277;49.824;9.562;2024-02-26T04:45:44;2.80;;;1.55;;
12425;SDS011;6277;49.824;9.562;2024-02-26T04:48:09;3.10;;;1.40;;
12425;SDS011;6277;49.824;9.562;2024-02-26T04:50:35;2.05;;;1.50;;
12425;SDS011;6277;49.824;9.562;2024-02-26T04:53:00;1.73;;;1.23;;
12425;SDS011;6277;49.824;9.562;2024-02-26T04:55:26;2.28;;;1.50;;
12425;SDS011;6277;49.824;9.562;2024-02-26T04:57:52;1.63;;;1.40;;
12425;SDS011;6277;49.824;9.562;2024-02-26T05:00:17;2.20;;;1.40;;
12425;SDS011;6277;49.824;9.562;2024-02-26T05:02:43;2.67;;;1.40;;
12425;SDS011;6277;49.824;9.562;2024-02-26T05:05:08;2.13;;;1.02;;
12425;SDS011;6277;49.824;9.562;2024-02-26T05:07:38;1.35;;;1.10;;
12425;SDS011;6277;49.824;9.562;2024-02-26T05:10:05;2.42;;;1.30;;
12425;SDS011;6277;49.824;9.562;2024-02-26T05:12:30;1.80;;;1.20;;
12425;SDS011;6277;49.824;9.562;2024-02-26T05:14:56;2.00;;;1.30;;
12425;SDS011;6277;49.824;9.562;2024-02-26T05:17:21;1.75;;;1.38;;
12425;SDS011;6277;49.824;9.562;2024-02-26T05:19:47;1.55;;;1.20;;
12425;SDS011;6277;49.824;9.562;2024-02-26T05:22:12;2.78;;;1.50;;
12425;SDS011;6277;49.824;9.562;2024-02-26T05:24:38;1.65;;;1.02;;
12425;SDS011;6277;49.824;9.562;2024-02-26T05:27:04;2.17;;;1.33;;
12425;SDS011;6277;49.824;9.562;2024-02-26T05:29:29;1.77;;;1.20;;
12425;SDS011;6277;49.824;9.562;2024-02-26T05:31:55;2.58;;;1.27;;
12425;SDS011;6277;49.824;9.562;2024-02-26T05:34:21;3.15;;;1.10;;
12425;SDS011;6277;49.824;9.562;2024-02-26T05:36:47;1.25;;;1.10;;
12425;SDS011;6277;49.824;9.562;2024-02-26T05:39:12;1.90;;;1.10;;
12425;SDS011;6277;49.824;9.562;2024-02-26T05:41:38;1.73;;;1.13;;
12425;SDS011;6277;49.824;9.562;2024-02-26T05:44:03;2.00;;;1.10;;
12425;SDS011;6277;49.824;9.562;2024-02-26T05:46:29;3.60;;;1.17;;
12425;SDS011;6277;49.824;9.562;2024-02-26T05:48:54;1.35;;;1.00;;
12425;SDS011;6277;49.824;9.562;2024-02-26T05:51:20;1.67;;;1.17;;
12425;SDS011;6277;49.824;9.562;2024-02-26T05:53:46;1.50;;;1.13;;
12425;SDS011;6277;49.824;9.562;2024-02-26T05:56:12;1.80;;;1.13;;
12425;SDS011;6277;49.824;9.562;2024-02-26T05:58:38;2.03;;;1.15;;
12425;SDS011;6277;49.824;9.562;2024-02-26T06:01:03;2.35;;;1.50;;
12425;SDS011;6277;49.824;9.562;2024-02-26T06:03:29;1.85;;;1.10;;
12425;SDS011;6277;49.824;9.562;2024-02-26T06:05:54;1.55;;;1.20;;
12425;SDS011;6277;49.824;9.562;2024-02-26T06:08:20;1.88;;;1.25;;
12425;SDS011;6277;49.824;9.562;2024-02-26T06:10:45;2.25;;;1.33;;
12425;SDS011;6277;49.824;9.562;2024-02-26T06:13:11;1.70;;;1.02;;
12425;SDS011;6277;49.824;9.562;2024-02-26T06:15:36;2.42;;;1.20;;
12425;SDS011;6277;49.824;9.562;2024-02-26T06:18:02;2.10;;;1.35;;
12425;SDS011;6277;49.824;9.562;2024-02-26T06:20:28;2.33;;;1.48;;
12425;SDS011;6277;49.824;9.562;2024-02-26T06:22:53;2.40;;;1.42;;
12425;SDS011;6277;49.824;9.562;2024-02-26T06:25:19;2.10;;;1.50;;
12425;SDS011;6277;49.824;9.562;2024-02-26T06:27:44;3.30;;;1.40;;
12425;SDS011;6277;49.824;9.562;2024-02-26T06:30:10;1.55;;;1.35;;
12425;SDS011;6277;49.824;9.562;2024-02-26T06:32:39;2.63;;;1.42;;
12425;SDS011;6277;49.824;9.562;2024-02-26T06:35:04;3.65;;;1.58;;
12425;SDS011;6277;49.824;9.562;2024-02-26T06:37:33;2.78;;;1.52;;
12425;SDS011;6277;49.824;9.562;2024-02-26T06:39:58;2.65;;;1.65;;
12425;SDS011;6277;49.824;9.562;2024-02-26T06:42:24;1.58;;;1.33;;
12425;SDS011;6277;49.824;9.562;2024-02-26T06:44:50;2.05;;;1.42;;
12425;SDS011;6277;49.824;9.562;2024-02-26T06:47:15;2.70;;;1.55;;
12425;SDS011;6277;49.824;9.562;2024-02-26T06:49:41;2.50;;;1.40;;
12425;SDS011;6277;49.824;9.562;2024-02-26T06:52:07;2.25;;;1.40;;
12425;SDS011;6277;49.824;9.562;2024-02-26T06:54:32;2.72;;;1.73;;
12425;SDS011;6277;49.824;9.562;2024-02-26T06:56:58;2.30;;;1.70;;
12425;SDS011;6277;49.824;9.562;2024-02-26T06:59:24;2.47;;;1.55;;
12425;SDS011;6277;49.824;9.562;2024-02-26T07:01:49;2.40;;;1.40;;
12425;SDS011;6277;49.824;9.562;2024-02-26T07:04:15;2.75;;;1.70;;
12425;SDS011;6277;49.824;9.562;2024-02-26T07:06:40;3.08;;;1.80;;
12425;SDS011;6277;49.824;9.562;2024-02-26T07:09:07;2.53;;;1.80;;
12425;SDS011;6277;49.824;9.562;2024-02-26T07:11:33;2.33;;;1.60;;
12425;SDS011;6277;49.824;9.562;2024-02-26T07:13:58;2.58;;;1.70;;
12425;SDS011;6277;49.824;9.562;2024-02-26T07:16:25;2.22;;;1.48;;
12425;SDS011;6277;49.824;9.562;2024-02-26T07:18:52;2.65;;;1.67;;
12425;SDS011;6277;49.824;9.562;2024-02-26T07:21:17;3.45;;;2.08;;
12425;SDS011;6277;49.824;9.562;2024-02-26T07:23:43;3.42;;;2.08;;
12425;SDS011;6277;49.824;9.562;2024-02-26T07:26:08;3.13;;;1.90;;
12425;SDS011;6277;49.824;9.562;2024-02-26T07:28:36;3.50;;;2.10;;
12425;SDS011;6277;49.824;9.562;2024-02-26T07:31:02;3.60;;;2.00;;
12425;SDS011;6277;49.824;9.562;2024-02-26T07:33:28;3.17;;;1.90;;
12425;SDS011;6277;49.824;9.562;2024-02-26T07:35:53;2.80;;;2.00;;
12425;SDS011;6277;49.824;9.562;2024-02-26T07:38:19;3.80;;;2.15;;
12425;SDS011;6277;49.824;9.562;2024-02-26T07:40:45;2.53;;;1.88;;
12425;SDS011;6277;49.824;9.562;2024-02-26T07:43:10;3.10;;;2.13;;
12425;SDS011;6277;49.824;9.562;2024-02-26T07:45:36;3.13;;;2.08;;
12425;SDS011;6277;49.824;9.562;2024-02-26T07:48:01;3.25;;;2.08;;
12425;SDS011;6277;49.824;9.562;2024-02-26T07:50:27;3.47;;;2.03;;
12425;SDS011;6277;49.824;9.562;2024-02-26T07:52:53;2.78;;;1.98;;
12425;SDS011;6277;49.824;9.562;2024-02-26T07:55:19;3.03;;;2.08;;
12425;SDS011;6277;49.824;9.562;2024-02-26T07:57:44;3.45;;;2.50;;
12425;SDS011;6277;49.824;9.562;2024-02-26T08:00:10;4.53;;;2.70;;
12425;SDS011;6277;49.824;9.562;2024-02-26T08:02:36;5.00;;;3.28;;
12425;SDS011;6277;49.824;9.562;2024-02-26T08:05:01;4.40;;;3.00;;
12425;SDS011;6277;49.824;9.562;2024-02-26T08:07:27;4.03;;;2.80;;
12425;SDS011;6277;49.824;9.562;2024-02-26T08:09:53;3.75;;;2.78;;
12425;SDS011;6277;49.824;9.562;2024-02-26T08:12:19;4.47;;;2.78;;
12425;SDS011;6277;49.824;9.562;2024-02-26T08:14:45;3.03;;;2.35;;
12425;SDS011;6277;49.824;9.562;2024-02-26T08:17:10;3.65;;;2.50;;
12425;SDS011;6277;49.824;9.562;2024-02-26T08:19:36;5.38;;;2.80;;
12425;SDS011;6277;49.824;9.562;2024-02-26T08:22:01;4.32;;;2.03;;
12425;SDS011;6277;49.824;9.562;2024-02-26T08:24:27;4.05;;;2.33;;
12425;SDS011;6277;49.824;9.562;2024-02-26T08:26:53;3.38;;;2.33;;
12425;SDS011;6277;49.824;9.562;2024-02-26T08:29:19;4.20;;;2.70;;
12425;SDS011;6277;49.824;9.562;2024-02-26T08:31:44;3.17;;;2.30;;
12425;SDS011;6277;49.824;9.562;2024-02-26T08:34:10;3.97;;;2.42;;
12425;SDS011;6277;49.824;9.562;2024-02-26T08:36:35;3.35;;;2.47;;
12425;SDS011;6277;49.824;9.562;2024-02-26T08:39:01;3.05;;;2.17;;
12425;SDS011;6277;49.824;9.562;2024-02-26T08:41:27;3.22;;;2.33;;
12425;SDS011;6277;49.824;9.562;2024-02-26T08:43:52;3.38;;;2.33;;
12425;SDS011;6277;49.824;9.562;2024-02-26T08:46:18;4.85;;;2.40;;
12425;SDS011;6277;49.824;9.562;2024-02-26T08:48:43;3.88;;;2.45;;
12425;SDS011;6277;49.824;9.562;2024-02-26T08:51:09;3.13;;;2.35;;
12425;SDS011;6277;49.824;9.562;2024-02-26T08:53:37;4.15;;;2.70;;
12425;SDS011;6277;49.824;9.562;2024-02-26T08:56:03;3.28;;;2.00;;
12425;SDS011;6277;49.824;9.562;2024-02-26T08:58:29;4.70;;;2.55;;
12425;SDS011;6277;49.824;9.562;2024-02-26T09:00:55;4.70;;;2.22;;
12425;SDS011;6277;49.824;9.562;2024-02-26T09:03:21;3.63;;;2.53;;
12425;SDS011;6277;49.824;9.562;2024-02-26T09:05:47;3.55;;;2.50;;
12425;SDS011;6277;49.824;9.562;2024-02-26T09:08:12;4.90;;;2.72;;
12425;SDS011;6277;49.824;9.562;2024-02-26T09:10:38;3.55;;;2.42;;
12425;SDS011;6277;49.824;9.562;2024-02-26T09:13:04;3.75;;;2.55;;
12425;SDS011;6277;49.824;9.562;2024-02-26T09:15:29;3.47;;;2.55;;
12425;SDS011;6277;49.824;9.562;2024-02-26T09:17:55;4.07;;;2.65;;
12425;SDS011;6277;49.824;9.562;2024-02-26T09:20:21;3.50;;;2.67;;
12425;SDS011;6277;49.824;9.562;2024-02-26T09:22:47;3.67;;;2.50;;
12425;SDS011;6277;49.824;9.562;2024-02-26T09:25:13;3.92;;;2.80;;
12425;SDS011;6277;49.824;9.562;2024-02-26T09:27:40;4.95;;;2.67;;
12425;SDS011;6277;49.824;9.562;2024-02-26T09:30:07;3.75;;;2.63;;
12425;SDS011;6277;49.824;9.562;2024-02-26T09:32:33;4.68;;;2.85;;
12425;SDS011;6277;49.824;9.562;2024-02-26T09:34:58;4.55;;;2.80;;
12425;SDS011;6277;49.824;9.562;2024-02-26T09:37:24;5.55;;;2.90;;
12425;SDS011;6277;49.824;9.562;2024-02-26T09:39:50;3.97;;;2.65;;
12425;SDS011;6277;49.824;9.562;2024-02-26T09:42:15;4.72;;;2.80;;
12425;SDS011;6277;49.824;9.562;2024-02-26T09:44:43;5.75;;;3.13;;
12425;SDS011;6277;49.824;9.562;2024-02-26T09:47:10;4.57;;;2.90;;
12425;SDS011;6277;49.824;9.562;2024-02-26T09:49:38;4.55;;;2.97;;
12425;SDS011;6277;49.824;9.562;2024-02-26T09:52:04;4.90;;;3.25;;
12425;SDS011;6277;49.824;9.562;2024-02-26T09:54:31;5.20;;;3.55;;
12425;SDS011;6277;49.824;9.562;2024-02-26T09:57:02;4.57;;;2.90;;
12425;SDS011;6277;49.824;9.562;2024-02-26T09:59:29;4.72;;;2.83;;
12425;SDS011;6277;49.824;9.562;2024-02-26T10:01:59;5.10;;;3.08;;
12425;SDS011;6277;49.824;9.562;2024-02-26T10:04:25;4.82;;;3.25;;
12425;SDS011;6277;49.824;9.562;2024-02-26T10:06:52;4.88;;;3.03;;
12425;SDS011;6277;49.824;9.562;2024-02-26T10:09:18;4.13;;;2.90;;
12425;SDS011;6277;49.824;9.562;2024-02-26T10:11:44;5.00;;;3.20;;
12425;SDS011;6277;49.824;9.562;2024-02-26T10:14:14;4.30;;;3.05;;
12425;SDS011;6277;49.824;9.562;2024-02-26T10:16:40;3.88;;;2.95;;
12425;SDS011;6277;49.824;9.562;2024-02-26T10:19:06;5.30;;;3.35;;
12425;SDS011;6277;49.824;9.562;2024-02-26T10:21:32;4.40;;;3.20;;
12425;SDS011;6277;49.824;9.562;2024-02-26T10:23:57;4.57;;;3.20;;
12425;SDS011;6277;49.824;9.562;2024-02-26T10:26:23;4.57;;;3.10;;
12425;SDS011;6277;49.824;9.562;2024-02-26T10:28:48;4.95;;;3.05;;
12425;SDS011;6277;49.824;9.562;2024-02-26T10:31:14;4.03;;;3.22;;
12425;SDS011;6277;49.824;9.562;2024-02-26T10:33:40;4.85;;;3.10;;
12425;SDS011;6277;49.824;9.562;2024-02-26T10:36:07;4.18;;;3.10;;
12425;SDS011;6277;49.824;9.562;2024-02-26T10:38:34;6.30;;;3.55;;
12425;SDS011;6277;49.824;9.562;2024-02-26T10:41:01;3.60;;;2.92;;
12425;SDS011;6277;49.824;9.562;2024-02-26T10:43:47;3.95;;;2.97;;
12425;SDS011;6277;49.824;9.562;2024-02-26T10:46:13;3.95;;;3.20;;
12425;SDS011;6277;49.824;9.562;2024-02-26T10:48:39;4.60;;;3.30;;
12425;SDS011;6277;49.824;9.562;2024-02-26T10:51:05;4.97;;;3.17;;
12425;SDS011;6277;49.824;9.562;2024-02-26T10:53:31;4.75;;;3.10;;
12425;SDS011;6277;49.824;9.562;2024-02-26T10:56:01;6.07;;;3.28;;
12425;SDS011;6277;49.824;9.562;2024-02-26T10:58:29;3.88;;;3.08;;
12425;SDS011;6277;49.824;9.562;2024-02-26T11:00:56;4.80;;;3.00;;
12425;SDS011;6277;49.824;9.562;2024-02-26T11:03:22;5.50;;;3.15;;
12425;SDS011;6277;49.824;9.562;2024-02-26T11:05:49;4.63;;;3.38;;
12425;SDS011;6277;49.824;9.562;2024-02-26T11:08:15;3.22;;;2.50;;
12425;SDS011;6277;49.824;9.562;2024-02-26T11:10:43;4.30;;;3.00;;
12425;SDS011;6277;49.824;9.562;2024-02-26T11:13:13;4.45;;;3.03;;
12425;SDS011;6277;49.824;9.562;2024-02-26T11:15:40;3.58;;;2.45;;
12425;SDS011;6277;49.824;9.562;2024-02-26T11:18:07;3.65;;;2.85;;
12425;SDS011;6277;49.824;9.562;2024-02-26T11:20:33;4.32;;;3.20;;
12425;SDS011;6277;49.824;9.562;2024-02-26T11:23:03;4.22;;;2.90;;
12425;SDS011;6277;49.824;9.562;2024-02-26T11:25:28;4.03;;;2.92;;
12425;SDS011;6277;49.824;9.562;2024-02-26T11:27:58;3.90;;;3.03;;
12425;SDS011;6277;49.824;9.562;2024-02-26T11:30:26;4.93;;;3.17;;
12425;SDS011;6277;49.824;9.562;2024-02-26T11:32:56;4.28;;;3.03;;
12425;SDS011;6277;49.824;9.562;2024-02-26T11:35:22;3.78;;;3.00;;
12425;SDS011;6277;49.824;9.562;2024-02-26T11:37:55;5.93;;;3.92;;
12425;SDS011;6277;49.824;9.562;2024-02-26T11:40:22;5.45;;;3.63;;
12425;SDS011;6277;49.824;9.562;2024-02-26T11:42:50;7.00;;;4.15;;
12425;SDS011;6277;49.824;9.562;2024-02-26T11:48:11;4.97;;;3.75;;
12425;SDS011;6277;49.824;9.562;2024-02-26T11:50:42;6.10;;;4.20;;
12425;SDS011;6277;49.824;9.562;2024-02-26T11:53:19;4.72;;;3.28;;
12425;SDS011;6277;49.824;9.562;2024-02-26T11:56:03;5.63;;;3.20;;
12425;SDS011;6277;49.824;9.562;2024-02-26T11:58:43;4.72;;;3.05;;
12425;SDS011;6277;49.824;9.562;2024-02-26T12:04:06;5.53;;;3.33;;
12425;SDS011;6277;49.824;9.562;2024-02-26T12:06:40;3.90;;;2.83;;
12425;SDS011;6277;49.824;9.562;2024-02-26T12:11:38;3.30;;;2.50;;
12425;SDS011;6277;49.824;9.562;2024-02-26T12:14:05;4.28;;;2.88;;
12425;SDS011;6277;49.824;9.562;2024-02-26T12:16:37;7.22;;;4.07;;
12425;SDS011;6277;49.824;9.562;2024-02-26T12:19:08;4.63;;;3.30;;
12425;SDS011;6277;49.824;9.562;2024-02-26T12:21:34;3.88;;;2.97;;
12425;SDS011;6277;49.824;9.562;2024-02-26T12:24:10;3.92;;;2.88;;
12425;SDS011;6277;49.824;9.562;2024-02-26T12:26:37;3.90;;;2.67;;
12425;SDS011;6277;49.824;9.562;2024-02-26T12:29:04;3.28;;;2.60;;
12425;SDS011;6277;49.824;9.562;2024-02-26T12:31:29;3.70;;;2.90;;
12425;SDS011;6277;49.824;9.562;2024-02-26T12:33:56;3.60;;;2.60;;
12425;SDS011;6277;49.824;9.562;2024-02-26T12:36:22;3.70;;;2.67;;
12425;SDS011;6277;49.824;9.562;2024-02-26T12:38:48;4.82;;;3.10;;
12425;SDS011;6277;49.824;9.562;2024-02-26T12:41:15;4.82;;;2.90;;
12425;SDS011;6277;49.824;9.562;2024-02-26T12:43:41;3.33;;;2.40;;
12425;SDS011;6277;49.824;9.562;2024-02-26T12:46:07;4.05;;;2.78;;
12425;SDS011;6277;49.824;9.562;2024-02-26T12:48:33;3.85;;;2.80;;
12425;SDS011;6277;49.824;9.562;2024-02-26T12:50:58;3.47;;;2.55;;
12425;SDS011;6277;49.824;9.562;2024-02-26T12:53:24;3.17;;;2.65;;
12425;SDS011;6277;49.824;9.562;2024-02-26T12:55:51;3.53;;;2.67;;
12425;SDS011;6277;49.824;9.562;2024-02-26T12:58:17;4.38;;;3.00;;
12425;SDS011;6277;49.824;9.562;2024-02-26T13:00:44;4.43;;;2.60;;
12425;SDS011;6277;49.824;9.562;2024-02-26T13:03:11;3.15;;;2.47;;
12425;SDS011;6277;49.824;9.562;2024-02-26T13:05:38;3.38;;;2.50;;
12425;SDS011;6277;49.824;9.562;2024-02-26T13:08:04;4.78;;;2.78;;
12425;SDS011;6277;49.824;9.562;2024-02-26T13:10:31;3.90;;;2.78;;
12425;SDS011;6277;49.824;9.562;2024-02-26T13:12:56;3.85;;;2.47;;
12425;SDS011;6277;49.824;9.562;2024-02-26T13:15:22;3.67;;;2.20;;
12425;SDS011;6277;49.824;9.562;2024-02-26T13:17:48;3.25;;;2.20;;
12425;SDS011;6277;49.824;9.562;2024-02-26T13:20:25;2.70;;;2.30;;
12425;SDS011;6277;49.824;9.562;2024-02-26T13:22:59;3.80;;;2.42;;
12425;SDS011;6277;49.824;9.562;2024-02-26T13:25:25;3.63;;;2.55;;
12425;SDS011;6277;49.824;9.562;2024-02-26T13:27:51;3.50;;;2.65;;
12425;SDS011;6277;49.824;9.562;2024-02-26T13:30:17;2.80;;;2.30;;
12425;SDS011;6277;49.824;9.562;2024-02-26T13:32:44;4.30;;;2.70;;
12425;SDS011;6277;49.824;9.562;2024-02-26T13:35:12;3.60;;;2.47;;
12425;SDS011;6277;49.824;9.562;2024-02-26T13:37:38;4.35;;;2.50;;
12425;SDS011;6277;49.824;9.562;2024-02-26T13:40:10;3.90;;;2.30;;
12425;SDS011;6277;49.824;9.562;2024-02-26T13:42:37;2.50;;;1.90;;
12425;SDS011;6277;49.824;9.562;2024-02-26T13:45:03;3.08;;;2.10;;
12425;SDS011;6277;49.824;9.562;2024-02-26T13:47:33;3.08;;;1.98;;
12425;SDS011;6277;49.824;9.562;2024-02-26T13:49:59;2.80;;;2.17;;
12425;SDS011;6277;49.824;9.562;2024-02-26T13:52:25;2.75;;;1.98;;
12425;SDS011;6277;49.824;9.562;2024-02-26T13:54:51;2.88;;;2.00;;
12425;SDS011;6277;49.824;9.562;2024-02-26T13:57:17;3.33;;;2.20;;
12425;SDS011;6277;49.824;9.562;2024-02-26T13:59:47;2.78;;;1.92;;
12425;SDS011;6277;49.824;9.562;2024-02-26T14:02:13;3.38;;;2.05;;
12425;SDS011;6277;49.824;9.562;2024-02-26T14:04:38;2.70;;;1.83;;
12425;SDS011;6277;49.824;9.562;2024-02-26T14:07:04;2.83;;;1.92;;
12425;SDS011;6277;49.824;9.562;2024-02-26T14:09:30;3.00;;;1.85;;
12425;SDS011;6277;49.824;9.562;2024-02-26T14:11:57;1.90;;;1.60;;
12425;SDS011;6277;49.824;9.562;2024-02-26T14:14:22;2.20;;;1.60;;
12425;SDS011;6277;49.824;9.562;2024-02-26T14:16:48;2.33;;;1.85;;
12425;SDS011;6277;49.824;9.562;2024-02-26T14:19:13;2.47;;;1.65;;
12425;SDS011;6277;49.824;9.562;2024-02-26T14:21:39;2.53;;;1.70;;
12425;SDS011;6277;49.824;9.562;2024-02-26T14:24:04;2.33;;;1.55;;
12425;SDS011;6277;49.824;9.562;2024-02-26T14:26:30;1.88;;;1.38;;
12425;SDS011;6277;49.824;9.562;2024-02-26T14:28:55;1.92;;;1.65;;
12425;SDS011;6277;49.824;9.562;2024-02-26T14:31:21;2.20;;;1.42;;
12425;SDS011;6277;49.824;9.562;2024-02-26T14:33:47;2.70;;;1.40;;
12425;SDS011;6277;49.824;9.562;2024-02-26T14:36:13;2.50;;;1.60;;
12425;SDS011;6277;49.824;9.562;2024-02-26T14:38:39;2.10;;;1.55;;
12425;SDS011;6277;49.824;9.562;2024-02-26T14:41:04;2.45;;;1.40;;
12425;SDS011;6277;49.824;9.562;2024-02-26T14:43:30;2.40;;;1.70;;
12425;SDS011;6277;49.824;9.562;2024-02-26T14:45:57;2.33;;;1.77;;
12425;SDS011;6277;49.824;9.562;2024-02-26T14:48:23;2.55;;;1.70;;
12425;SDS011;6277;49.824;9.562;2024-02-26T14:50:49;3.05;;;1.50;;
12425;SDS011;6277;49.824;9.562;2024-02-26T14:53:15;2.05;;;1.58;;
12425;SDS011;6277;49.824;9.562;2024-02-26T14:55:41;2.63;;;1.50;;
12425;SDS011;6277;49.824;9.562;2024-02-26T14:58:07;2.22;;;1.60;;
12425;SDS011;6277;49.824;9.562;2024-02-26T15:00:34;2.40;;;1.60;;
12425;SDS011;6277;49.824;9.562;2024-02-26T15:03:00;1.98;;;1.60;;